sensor_id;sensor_type;location;lat;lon;timestamp;P1;durP1;ratioP1;P2;durP2;ratioP2
33864;SDS011;20159;51.072;13.526;2023-03-17T00:01:07;8.57;;;4.65;;
33864;SDS011;20159;51.072;13.526;2023-03-17T00:03:35;8.75;;;4.93;;
33864;SDS011;20159;51.072;13.526;2023-03-17T00:06:03;6.80;;;4.85;;
33864;SDS011;20159;51.072;13.526;2023-03-17T00:08:30;7.10;;;4.90;;
33864;SDS011;20159;51.072;13.526;2023-03-17T00:10:57;6.60;;;4.40;;
33864;SDS011;20159;51.072;13.526;2023-03-17T00:13:24;5.95;;;4.45;;
33864;SDS011;20159;51.072;13.526;2023-03-17T00:15:52;6.18;;;4.60;;
33864;SDS011;20159;51.072;13.526;2023-03-17T00:18:20;6.30;;;4.80;;
33864;SDS011;20159;51.072;13.526;2023-03-17T00:20:46;5.88;;;4.30;;
33864;SDS011;20159;51.072;13.526;2023-03-17T00:23:16;9.18;;;4.55;;
33864;SDS011;20159;51.072;13.526;2023-03-17T00:25:43;6.70;;;4.53;;
33864;SDS011;20159;51.072;13.526;2023-03-17T00:28:23;7.20;;;4.32;;
33864;SDS011;20159;51.072;13.526;2023-03-17T00:30:51;5.78;;;4.55;;
33864;SDS011;20159;51.072;13.526;2023-03-17T00:33:20;8.70;;;4.85;;
33864;SDS011;20159;51.072;13.526;2023-03-17T00:35:49;6.43;;;4.30;;
33864;SDS011;20159;51.072;13.526;2023-03-17T00:38:15;6.82;;;4.57;;
33864;SDS011;20159;51.072;13.526;2023-03-17T00:40:42;6.22;;;4.30;;
33864;SDS011;20159;51.072;13.526;2023-03-17T00:43:09;5.57;;;4.20;;
33864;SDS011;20159;51.072;13.526;2023-03-17T00:45:35;7.50;;;4.60;;
33864;SDS011;20159;51.072;13.526;2023-03-17T00:48:02;6.78;;;4.28;;
33864;SDS011;20159;51.072;13.526;2023-03-17T00:50:30;6.15;;;4.38;;
33864;SDS011;20159;51.072;13.526;2023-03-17T00:52:56;6.43;;;4.30;;
33864;SDS011;20159;51.072;13.526;2023-03-17T00:55:22;7.22;;;4.68;;
33864;SDS011;20159;51.072;13.526;2023-03-17T00:57:50;7.20;;;4.50;;
33864;SDS011;20159;51.072;13.526;2023-03-17T01:02:50;9.07;;;3.95;;
33864;SDS011;20159;51.072;13.526;2023-03-17T01:05:18;6.78;;;4.40;;
33864;SDS011;20159;51.072;13.526;2023-03-17T01:07:44;6.68;;;4.03;;
33864;SDS011;20159;51.072;13.526;2023-03-17T01:10:17;5.03;;;3.75;;
33864;SDS011;20159;51.072;13.526;2023-03-17T01:12:47;7.10;;;4.18;;
33864;SDS011;20159;51.072;13.526;2023-03-17T01:15:14;7.20;;;4.18;;
33864;SDS011;20159;51.072;13.526;2023-03-17T01:17:40;6.32;;;4.25;;
33864;SDS011;20159;51.072;13.526;2023-03-17T01:20:07;5.97;;;4.10;;
33864;SDS011;20159;51.072;13.526;2023-03-17T01:22:39;9.23;;;4.13;;
33864;SDS011;20159;51.072;13.526;2023-03-17T01:25:06;6.68;;;4.22;;
33864;SDS011;20159;51.072;13.526;2023-03-17T01:27:34;5.63;;;3.95;;
33864;SDS011;20159;51.072;13.526;2023-03-17T01:30:01;5.40;;;4.10;;
33864;SDS011;20159;51.072;13.526;2023-03-17T01:32:27;8.40;;;4.55;;
33864;SDS011;20159;51.072;13.526;2023-03-17T01:34:53;5.63;;;4.03;;
33864;SDS011;20159;51.072;13.526;2023-03-17T01:37:18;5.78;;;4.38;;
33864;SDS011;20159;51.072;13.526;2023-03-17T01:39:45;6.00;;;4.05;;
33864;SDS011;20159;51.072;13.526;2023-03-17T01:42:11;6.93;;;4.10;;
33864;SDS011;20159;51.072;13.526;2023-03-17T01:44:54;7.25;;;4.10;;
33864;SDS011;20159;51.072;13.526;2023-03-17T01:47:21;6.00;;;4.00;;
33864;SDS011;20159;51.072;13.526;2023-03-17T01:49:50;9.90;;;4.30;;
33864;SDS011;20159;51.072;13.526;2023-03-17T01:52:16;6.75;;;3.83;;
33864;SDS011;20159;51.072;13.526;2023-03-17T01:57:27;7.20;;;4.18;;
33864;SDS011;20159;51.072;13.526;2023-03-17T02:00:04;6.82;;;4.30;;
33864;SDS011;20159;51.072;13.526;2023-03-17T02:02:34;7.75;;;4.38;;
33864;SDS011;20159;51.072;13.526;2023-03-17T02:05:03;5.65;;;4.07;;
33864;SDS011;20159;51.072;13.526;2023-03-17T02:07:30;5.75;;;3.90;;
33864;SDS011;20159;51.072;13.526;2023-03-17T02:09:56;5.55;;;4.00;;
33864;SDS011;20159;51.072;13.526;2023-03-17T02:12:23;8.05;;;3.67;;
33864;SDS011;20159;51.072;13.526;2023-03-17T02:14:51;6.28;;;4.18;;
33864;SDS011;20159;51.072;13.526;2023-03-17T02:17:20;6.85;;;4.10;;
33864;SDS011;20159;51.072;13.526;2023-03-17T02:19:48;5.50;;;3.42;;
33864;SDS011;20159;51.072;13.526;2023-03-17T02:22:14;7.18;;;4.35;;
33864;SDS011;20159;51.072;13.526;2023-03-17T02:24:42;7.05;;;3.92;;
33864;SDS011;20159;51.072;13.526;2023-03-17T02:27:16;6.82;;;3.85;;
33864;SDS011;20159;51.072;13.526;2023-03-17T02:29:45;5.03;;;3.78;;
33864;SDS011;20159;51.072;13.526;2023-03-17T02:32:12;5.00;;;3.35;;
33864;SDS011;20159;51.072;13.526;2023-03-17T02:34:39;4.50;;;3.35;;
33864;SDS011;20159;51.072;13.526;2023-03-17T02:37:04;5.55;;;3.42;;
33864;SDS011;20159;51.072;13.526;2023-03-17T02:39:32;6.22;;;3.55;;
33864;SDS011;20159;51.072;13.526;2023-03-17T02:41:57;5.00;;;3.30;;
33864;SDS011;20159;51.072;13.526;2023-03-17T02:44:24;5.97;;;3.40;;
33864;SDS011;20159;51.072;13.526;2023-03-17T02:46:49;4.45;;;3.45;;
33864;SDS011;20159;51.072;13.526;2023-03-17T02:49:15;7.93;;;3.60;;
33864;SDS011;20159;51.072;13.526;2023-03-17T02:51:41;5.88;;;3.38;;
33864;SDS011;20159;51.072;13.526;2023-03-17T02:54:07;6.45;;;3.67;;
33864;SDS011;20159;51.072;13.526;2023-03-17T02:56:33;5.72;;;3.60;;
33864;SDS011;20159;51.072;13.526;2023-03-17T02:58:58;5.07;;;3.58;;
33864;SDS011;20159;51.072;13.526;2023-03-17T03:01:24;6.57;;;3.58;;
33864;SDS011;20159;51.072;13.526;2023-03-17T03:03:50;5.88;;;3.67;;
33864;SDS011;20159;51.072;13.526;2023-03-17T03:06:16;5.15;;;3.72;;
33864;SDS011;20159;51.072;13.526;2023-03-17T03:08:42;6.22;;;4.25;;
33864;SDS011;20159;51.072;13.526;2023-03-17T03:11:08;5.75;;;3.88;;
33864;SDS011;20159;51.072;13.526;2023-03-17T03:13:34;5.30;;;4.30;;
33864;SDS011;20159;51.072;13.526;2023-03-17T03:16:00;6.00;;;4.03;;
33864;SDS011;20159;51.072;13.526;2023-03-17T03:18:26;4.63;;;3.70;;
33864;SDS011;20159;51.072;13.526;2023-03-17T03:20:52;6.30;;;4.10;;
33864;SDS011;20159;51.072;13.526;2023-03-17T03:23:17;7.20;;;4.18;;
33864;SDS011;20159;51.072;13.526;2023-03-17T03:25:43;6.20;;;3.85;;
33864;SDS011;20159;51.072;13.526;2023-03-17T03:28:09;5.88;;;3.97;;
33864;SDS011;20159;51.072;13.526;2023-03-17T03:30:35;6.55;;;4.30;;
33864;SDS011;20159;51.072;13.526;2023-03-17T03:33:01;6.28;;;3.97;;
33864;SDS011;20159;51.072;13.526;2023-03-17T03:35:27;5.65;;;4.20;;
33864;SDS011;20159;51.072;13.526;2023-03-17T03:37:53;6.75;;;3.97;;
33864;SDS011;20159;51.072;13.526;2023-03-17T03:40:20;5.95;;;4.07;;
33864;SDS011;20159;51.072;13.526;2023-03-17T03:42:46;6.32;;;3.90;;
33864;SDS011;20159;51.072;13.526;2023-03-17T03:45:11;5.65;;;3.88;;
33864;SDS011;20159;51.072;13.526;2023-03-17T03:47:37;5.53;;;3.90;;
33864;SDS011;20159;51.072;13.526;2023-03-17T03:50:02;5.18;;;3.70;;
33864;SDS011;20159;51.072;13.526;2023-03-17T03:52:28;5.75;;;3.67;;
33864;SDS011;20159;51.072;13.526;2023-03-17T03:54:54;5.25;;;3.75;;
33864;SDS011;20159;51.072;13.526;2023-03-17T03:57:19;5.05;;;3.58;;
33864;SDS011;20159;51.072;13.526;2023-03-17T03:59:45;6.10;;;3.90;;
33864;SDS011;20159;51.072;13.526;2023-03-17T04:02:10;4.93;;;3.72;;
33864;SDS011;20159;51.072;13.526;2023-03-17T04:04:36;6.15;;;3.85;;
33864;SDS011;20159;51.072;13.526;2023-03-17T04:07:01;6.18;;;4.18;;
33864;SDS011;20159;51.072;13.526;2023-03-17T04:09:27;4.97;;;3.75;;
33864;SDS011;20159;51.072;13.526;2023-03-17T04:11:52;5.68;;;3.70;;
33864;SDS011;20159;51.072;13.526;2023-03-17T04:14:18;5.63;;;3.33;;
33864;SDS011;20159;51.072;13.526;2023-03-17T04:16:43;6.68;;;4.00;;
33864;SDS011;20159;51.072;13.526;2023-03-17T04:19:09;6.97;;;3.70;;
33864;SDS011;20159;51.072;13.526;2023-03-17T04:21:35;7.55;;;4.35;;
33864;SDS011;20159;51.072;13.526;2023-03-17T04:24:01;6.97;;;4.13;;
33864;SDS011;20159;51.072;13.526;2023-03-17T04:26:29;5.68;;;3.75;;
33864;SDS011;20159;51.072;13.526;2023-03-17T04:28:55;7.40;;;4.40;;
33864;SDS011;20159;51.072;13.526;2023-03-17T04:31:21;7.18;;;4.38;;
33864;SDS011;20159;51.072;13.526;2023-03-17T04:33:47;5.50;;;4.10;;
33864;SDS011;20159;51.072;13.526;2023-03-17T04:36:14;5.05;;;3.90;;
33864;SDS011;20159;51.072;13.526;2023-03-17T04:38:43;5.65;;;3.83;;
33864;SDS011;20159;51.072;13.526;2023-03-17T04:41:08;5.97;;;4.10;;
33864;SDS011;20159;51.072;13.526;2023-03-17T04:43:34;5.70;;;4.13;;
33864;SDS011;20159;51.072;13.526;2023-03-17T04:46:00;6.25;;;4.20;;
33864;SDS011;20159;51.072;13.526;2023-03-17T04:48:25;6.40;;;4.15;;
33864;SDS011;20159;51.072;13.526;2023-03-17T04:50:51;5.97;;;4.25;;
33864;SDS011;20159;51.072;13.526;2023-03-17T04:53:16;6.43;;;4.47;;
33864;SDS011;20159;51.072;13.526;2023-03-17T04:55:42;5.60;;;4.22;;
33864;SDS011;20159;51.072;13.526;2023-03-17T04:58:07;5.45;;;3.97;;
33864;SDS011;20159;51.072;13.526;2023-03-17T05:00:33;6.13;;;4.45;;
33864;SDS011;20159;51.072;13.526;2023-03-17T05:03:02;6.45;;;3.85;;
33864;SDS011;20159;51.072;13.526;2023-03-17T05:05:32;5.32;;;3.85;;
33864;SDS011;20159;51.072;13.526;2023-03-17T05:07:58;7.00;;;4.00;;
33864;SDS011;20159;51.072;13.526;2023-03-17T05:10:24;7.95;;;4.07;;
33864;SDS011;20159;51.072;13.526;2023-03-17T05:12:49;5.10;;;4.13;;
33864;SDS011;20159;51.072;13.526;2023-03-17T05:15:15;5.95;;;4.10;;
33864;SDS011;20159;51.072;13.526;2023-03-17T05:17:41;6.43;;;4.15;;
33864;SDS011;20159;51.072;13.526;2023-03-17T05:20:07;6.47;;;4.10;;
33864;SDS011;20159;51.072;13.526;2023-03-17T05:22:34;5.40;;;4.20;;
33864;SDS011;20159;51.072;13.526;2023-03-17T05:25:00;7.63;;;4.18;;
33864;SDS011;20159;51.072;13.526;2023-03-17T05:27:26;6.10;;;3.83;;
33864;SDS011;20159;51.072;13.526;2023-03-17T05:29:51;5.10;;;3.95;;
33864;SDS011;20159;51.072;13.526;2023-03-17T05:32:17;4.85;;;3.97;;
33864;SDS011;20159;51.072;13.526;2023-03-17T05:34:43;5.60;;;4.25;;
33864;SDS011;20159;51.072;13.526;2023-03-17T05:37:09;6.65;;;4.50;;
33864;SDS011;20159;51.072;13.526;2023-03-17T05:39:35;5.63;;;4.25;;
33864;SDS011;20159;51.072;13.526;2023-03-17T05:42:01;6.68;;;4.25;;
33864;SDS011;20159;51.072;13.526;2023-03-17T05:44:26;6.93;;;4.55;;
33864;SDS011;20159;51.072;13.526;2023-03-17T05:46:51;5.72;;;4.45;;
33864;SDS011;20159;51.072;13.526;2023-03-17T05:49:17;5.90;;;4.45;;
33864;SDS011;20159;51.072;13.526;2023-03-17T05:51:44;8.27;;;4.63;;
33864;SDS011;20159;51.072;13.526;2023-03-17T05:54:10;5.60;;;4.32;;
33864;SDS011;20159;51.072;13.526;2023-03-17T05:56:36;6.80;;;4.88;;
33864;SDS011;20159;51.072;13.526;2023-03-17T05:59:01;9.23;;;5.07;;
33864;SDS011;20159;51.072;13.526;2023-03-17T06:01:28;7.35;;;4.85;;
33864;SDS011;20159;51.072;13.526;2023-03-17T06:03:54;8.23;;;5.20;;
33864;SDS011;20159;51.072;13.526;2023-03-17T06:06:20;8.00;;;4.88;;
33864;SDS011;20159;51.072;13.526;2023-03-17T06:08:45;8.07;;;4.80;;
33864;SDS011;20159;51.072;13.526;2023-03-17T06:11:11;10.05;;;5.55;;
33864;SDS011;20159;51.072;13.526;2023-03-17T06:13:36;10.63;;;5.60;;
33864;SDS011;20159;51.072;13.526;2023-03-17T06:16:02;8.60;;;4.93;;
33864;SDS011;20159;51.072;13.526;2023-03-17T06:18:27;10.45;;;4.97;;
33864;SDS011;20159;51.072;13.526;2023-03-17T06:20:53;7.57;;;5.38;;
33864;SDS011;20159;51.072;13.526;2023-03-17T06:23:18;11.38;;;5.68;;
33864;SDS011;20159;51.072;13.526;2023-03-17T06:25:44;8.50;;;5.07;;
33864;SDS011;20159;51.072;13.526;2023-03-17T06:28:11;7.90;;;5.57;;
33864;SDS011;20159;51.072;13.526;2023-03-17T06:30:37;6.28;;;4.85;;
33864;SDS011;20159;51.072;13.526;2023-03-17T06:33:02;8.60;;;5.15;;
33864;SDS011;20159;51.072;13.526;2023-03-17T06:35:28;6.80;;;4.60;;
33864;SDS011;20159;51.072;13.526;2023-03-17T06:37:54;6.93;;;5.10;;
33864;SDS011;20159;51.072;13.526;2023-03-17T06:40:20;7.45;;;4.78;;
33864;SDS011;20159;51.072;13.526;2023-03-17T06:42:45;7.05;;;4.70;;
33864;SDS011;20159;51.072;13.526;2023-03-17T06:45:11;7.65;;;5.00;;
33864;SDS011;20159;51.072;13.526;2023-03-17T06:47:38;9.77;;;5.25;;
33864;SDS011;20159;51.072;13.526;2023-03-17T06:50:03;6.90;;;4.82;;
33864;SDS011;20159;51.072;13.526;2023-03-17T06:52:29;9.27;;;4.85;;
33864;SDS011;20159;51.072;13.526;2023-03-17T06:54:55;6.57;;;4.40;;
33864;SDS011;20159;51.072;13.526;2023-03-17T06:57:21;6.10;;;4.20;;
33864;SDS011;20159;51.072;13.526;2023-03-17T06:59:49;7.78;;;4.90;;
33864;SDS011;20159;51.072;13.526;2023-03-17T07:02:14;7.03;;;4.32;;
33864;SDS011;20159;51.072;13.526;2023-03-17T07:04:40;6.50;;;4.15;;
33864;SDS011;20159;51.072;13.526;2023-03-17T07:07:06;5.93;;;4.40;;
33864;SDS011;20159;51.072;13.526;2023-03-17T07:09:32;6.35;;;4.20;;
33864;SDS011;20159;51.072;13.526;2023-03-17T07:11:59;6.78;;;4.18;;
33864;SDS011;20159;51.072;13.526;2023-03-17T07:14:30;6.10;;;4.03;;
33864;SDS011;20159;51.072;13.526;2023-03-17T07:16:57;6.63;;;4.13;;
33864;SDS011;20159;51.072;13.526;2023-03-17T07:19:23;7.13;;;4.88;;
33864;SDS011;20159;51.072;13.526;2023-03-17T07:21:50;6.55;;;4.32;;
33864;SDS011;20159;51.072;13.526;2023-03-17T07:24:16;6.45;;;4.70;;
33864;SDS011;20159;51.072;13.526;2023-03-17T07:26:41;5.85;;;4.70;;
33864;SDS011;20159;51.072;13.526;2023-03-17T07:29:07;6.47;;;4.90;;
33864;SDS011;20159;51.072;13.526;2023-03-17T07:31:33;7.30;;;4.28;;
33864;SDS011;20159;51.072;13.526;2023-03-17T07:34:02;7.30;;;4.20;;
33864;SDS011;20159;51.072;13.526;2023-03-17T07:36:28;7.43;;;4.32;;
33864;SDS011;20159;51.072;13.526;2023-03-17T07:38:54;6.55;;;4.70;;
33864;SDS011;20159;51.072;13.526;2023-03-17T07:41:19;5.75;;;4.30;;
33864;SDS011;20159;51.072;13.526;2023-03-17T07:43:45;9.07;;;4.65;;
33864;SDS011;20159;51.072;13.526;2023-03-17T07:46:11;7.15;;;4.63;;
33864;SDS011;20159;51.072;13.526;2023-03-17T07:48:37;5.65;;;4.05;;
33864;SDS011;20159;51.072;13.526;2023-03-17T07:51:06;5.55;;;4.05;;
33864;SDS011;20159;51.072;13.526;2023-03-17T07:53:38;7.07;;;4.43;;
33864;SDS011;20159;51.072;13.526;2023-03-17T07:56:05;6.00;;;3.97;;
33864;SDS011;20159;51.072;13.526;2023-03-17T07:58:31;6.55;;;4.13;;
33864;SDS011;20159;51.072;13.526;2023-03-17T08:00:56;6.50;;;4.32;;
33864;SDS011;20159;51.072;13.526;2023-03-17T08:03:22;5.10;;;3.83;;
33864;SDS011;20159;51.072;13.526;2023-03-17T08:05:54;5.20;;;3.58;;
33864;SDS011;20159;51.072;13.526;2023-03-17T08:08:21;4.00;;;3.25;;
33864;SDS011;20159;51.072;13.526;2023-03-17T08:10:51;7.13;;;3.80;;
33864;SDS011;20159;51.072;13.526;2023-03-17T08:13:17;7.15;;;4.00;;
33864;SDS011;20159;51.072;13.526;2023-03-17T08:15:43;5.25;;;3.50;;
33864;SDS011;20159;51.072;13.526;2023-03-17T08:18:10;5.47;;;3.75;;
33864;SDS011;20159;51.072;13.526;2023-03-17T08:20:36;5.30;;;3.65;;
33864;SDS011;20159;51.072;13.526;2023-03-17T08:23:02;5.72;;;3.38;;
33864;SDS011;20159;51.072;13.526;2023-03-17T08:25:28;4.45;;;3.40;;
33864;SDS011;20159;51.072;13.526;2023-03-17T08:27:54;5.47;;;3.28;;
33864;SDS011;20159;51.072;13.526;2023-03-17T08:30:19;6.10;;;3.00;;
33864;SDS011;20159;51.072;13.526;2023-03-17T08:32:45;4.22;;;3.40;;
33864;SDS011;20159;51.072;13.526;2023-03-17T08:35:12;6.57;;;3.47;;
33864;SDS011;20159;51.072;13.526;2023-03-17T08:37:40;4.63;;;3.00;;
33864;SDS011;20159;51.072;13.526;2023-03-17T08:40:10;5.75;;;3.47;;
33864;SDS011;20159;51.072;13.526;2023-03-17T08:42:37;7.07;;;3.60;;
33864;SDS011;20159;51.072;13.526;2023-03-17T08:45:03;4.85;;;3.20;;
33864;SDS011;20159;51.072;13.526;2023-03-17T08:47:40;4.10;;;3.30;;
33864;SDS011;20159;51.072;13.526;2023-03-17T08:50:26;5.43;;;3.15;;
33864;SDS011;20159;51.072;13.526;2023-03-17T08:52:52;4.70;;;3.28;;
33864;SDS011;20159;51.072;13.526;2023-03-17T08:55:18;4.88;;;3.15;;
33864;SDS011;20159;51.072;13.526;2023-03-17T08:57:44;6.68;;;3.50;;
33864;SDS011;20159;51.072;13.526;2023-03-17T09:00:16;3.92;;;2.85;;
33864;SDS011;20159;51.072;13.526;2023-03-17T09:02:44;5.05;;;2.65;;
33864;SDS011;20159;51.072;13.526;2023-03-17T09:05:11;3.50;;;2.80;;
33864;SDS011;20159;51.072;13.526;2023-03-17T09:07:38;4.68;;;2.92;;
33864;SDS011;20159;51.072;13.526;2023-03-17T09:10:06;4.65;;;2.75;;
33864;SDS011;20159;51.072;13.526;2023-03-17T09:12:32;4.72;;;2.92;;
33864;SDS011;20159;51.072;13.526;2023-03-17T09:14:58;4.43;;;2.88;;
33864;SDS011;20159;51.072;13.526;2023-03-17T09:17:24;3.92;;;2.60;;
33864;SDS011;20159;51.072;13.526;2023-03-17T09:19:50;4.80;;;2.95;;
33864;SDS011;20159;51.072;13.526;2023-03-17T09:22:16;5.00;;;2.45;;
33864;SDS011;20159;51.072;13.526;2023-03-17T09:24:42;4.60;;;2.58;;
33864;SDS011;20159;51.072;13.526;2023-03-17T09:27:08;3.90;;;2.67;;
33864;SDS011;20159;51.072;13.526;2023-03-17T09:29:34;3.92;;;2.70;;
33864;SDS011;20159;51.072;13.526;2023-03-17T09:32:00;4.88;;;2.63;;
33864;SDS011;20159;51.072;13.526;2023-03-17T09:34:26;7.65;;;2.78;;
33864;SDS011;20159;51.072;13.526;2023-03-17T09:36:52;4.20;;;3.03;;
33864;SDS011;20159;51.072;13.526;2023-03-17T09:39:18;3.42;;;2.60;;
33864;SDS011;20159;51.072;13.526;2023-03-17T09:50:32;3.40;;;2.40;;
33864;SDS011;20159;51.072;13.526;2023-03-17T09:53:11;4.88;;;2.70;;
33864;SDS011;20159;51.072;13.526;2023-03-17T09:55:42;4.07;;;2.77;;
33864;SDS011;20159;51.072;13.526;2023-03-17T09:58:09;3.58;;;2.25;;
33864;SDS011;20159;51.072;13.526;2023-03-17T10:00:36;4.88;;;2.72;;
33864;SDS011;20159;51.072;13.526;2023-03-17T10:03:01;2.80;;;2.28;;
33864;SDS011;20159;51.072;13.526;2023-03-17T10:05:28;3.92;;;2.70;;
33864;SDS011;20159;51.072;13.526;2023-03-17T10:07:58;3.67;;;2.50;;
33864;SDS011;20159;51.072;13.526;2023-03-17T10:10:52;4.03;;;2.20;;
33864;SDS011;20159;51.072;13.526;2023-03-17T10:16:20;4.10;;;2.33;;
33864;SDS011;20159;51.072;13.526;2023-03-17T10:19:15;3.30;;;2.38;;
33864;SDS011;20159;51.072;13.526;2023-03-17T10:21:55;2.97;;;1.70;;
33864;SDS011;20159;51.072;13.526;2023-03-17T10:24:24;2.55;;;1.60;;
33864;SDS011;20159;51.072;13.526;2023-03-17T10:26:54;3.88;;;1.90;;
33864;SDS011;20159;51.072;13.526;2023-03-17T10:29:23;3.42;;;1.90;;
33864;SDS011;20159;51.072;13.526;2023-03-17T10:31:49;9.18;;;1.70;;
33864;SDS011;20159;51.072;13.526;2023-03-17T10:34:17;2.90;;;1.80;;
33864;SDS011;20159;51.072;13.526;2023-03-17T10:36:47;3.03;;;1.70;;
33864;SDS011;20159;51.072;13.526;2023-03-17T10:39:19;5.57;;;1.90;;
33864;SDS011;20159;51.072;13.526;2023-03-17T10:42:30;2.90;;;1.70;;
33864;SDS011;20159;51.072;13.526;2023-03-17T10:47:23;2.70;;;1.80;;
33864;SDS011;20159;51.072;13.526;2023-03-17T10:49:53;3.20;;;1.80;;
33864;SDS011;20159;51.072;13.526;2023-03-17T10:52:22;2.45;;;1.58;;
33864;SDS011;20159;51.072;13.526;2023-03-17T10:54:51;2.00;;;1.50;;
33864;SDS011;20159;51.072;13.526;2023-03-17T10:57:17;2.92;;;1.80;;
33864;SDS011;20159;51.072;13.526;2023-03-17T10:59:47;3.45;;;1.90;;
33864;SDS011;20159;51.072;13.526;2023-03-17T11:04:53;3.13;;;2.10;;
33864;SDS011;20159;51.072;13.526;2023-03-17T11:07:28;2.42;;;1.70;;
33864;SDS011;20159;51.072;13.526;2023-03-17T11:14:55;4.95;;;1.63;;
33864;SDS011;20159;51.072;13.526;2023-03-17T11:23:00;3.45;;;1.80;;
33864;SDS011;20159;51.072;13.526;2023-03-17T11:25:48;3.88;;;1.70;;
33864;SDS011;20159;51.072;13.526;2023-03-17T11:28:46;3.42;;;2.00;;
33864;SDS011;20159;51.072;13.526;2023-03-17T11:31:23;4.37;;;2.10;;
33864;SDS011;20159;51.072;13.526;2023-03-17T11:34:00;2.85;;;1.83;;
33864;SDS011;20159;51.072;13.526;2023-03-17T11:39:24;2.28;;;1.48;;
33864;SDS011;20159;51.072;13.526;2023-03-17T11:44:47;3.20;;;1.92;;
33864;SDS011;20159;51.072;13.526;2023-03-17T11:47:56;3.15;;;2.00;;
33864;SDS011;20159;51.072;13.526;2023-03-17T11:55:21;2.25;;;1.50;;
33864;SDS011;20159;51.072;13.526;2023-03-17T11:58:12;3.40;;;2.20;;
33864;SDS011;20159;51.072;13.526;2023-03-17T12:00:44;3.40;;;2.15;;
33864;SDS011;20159;51.072;13.526;2023-03-17T12:03:17;4.45;;;2.20;;
33864;SDS011;20159;51.072;13.526;2023-03-17T12:05:53;3.58;;;1.90;;
33864;SDS011;20159;51.072;13.526;2023-03-17T12:08:25;3.10;;;2.13;;
33864;SDS011;20159;51.072;13.526;2023-03-17T12:11:01;5.03;;;1.70;;
33864;SDS011;20159;51.072;13.526;2023-03-17T12:13:45;2.33;;;1.70;;
33864;SDS011;20159;51.072;13.526;2023-03-17T12:18:58;3.83;;;2.20;;
33864;SDS011;20159;51.072;13.526;2023-03-17T12:21:48;2.83;;;2.15;;
33864;SDS011;20159;51.072;13.526;2023-03-17T12:24:19;2.85;;;1.90;;
33864;SDS011;20159;51.072;13.526;2023-03-17T12:29:27;4.15;;;2.28;;
33864;SDS011;20159;51.072;13.526;2023-03-17T12:32:11;5.45;;;2.28;;
33864;SDS011;20159;51.072;13.526;2023-03-17T12:34:55;3.72;;;2.03;;
33864;SDS011;20159;51.072;13.526;2023-03-17T12:37:23;3.05;;;2.00;;
33864;SDS011;20159;51.072;13.526;2023-03-17T12:40:02;2.95;;;2.20;;
33864;SDS011;20159;51.072;13.526;2023-03-17T12:42:37;4.25;;;2.30;;
33864;SDS011;20159;51.072;13.526;2023-03-17T12:45:21;3.22;;;2.20;;
33864;SDS011;20159;51.072;13.526;2023-03-17T12:48:17;4.45;;;2.20;;
33864;SDS011;20159;51.072;13.526;2023-03-17T12:51:23;3.45;;;2.40;;
33864;SDS011;20159;51.072;13.526;2023-03-17T12:56:44;4.78;;;2.17;;
33864;SDS011;20159;51.072;13.526;2023-03-17T12:59:14;3.83;;;2.10;;
33864;SDS011;20159;51.072;13.526;2023-03-17T13:01:44;4.63;;;2.20;;
33864;SDS011;20159;51.072;13.526;2023-03-17T13:04:38;4.07;;;2.30;;
33864;SDS011;20159;51.072;13.526;2023-03-17T13:20:42;3.70;;;2.47;;
33864;SDS011;20159;51.072;13.526;2023-03-17T13:23:15;5.32;;;2.70;;
33864;SDS011;20159;51.072;13.526;2023-03-17T13:25:47;4.13;;;2.13;;
33864;SDS011;20159;51.072;13.526;2023-03-17T13:28:27;3.75;;;2.28;;
33864;SDS011;20159;51.072;13.526;2023-03-17T13:31:07;5.60;;;2.47;;
33864;SDS011;20159;51.072;13.526;2023-03-17T13:33:50;3.58;;;2.33;;
33864;SDS011;20159;51.072;13.526;2023-03-17T13:42:07;4.95;;;2.40;;
33864;SDS011;20159;51.072;13.526;2023-03-17T13:50:00;4.75;;;2.88;;
33864;SDS011;20159;51.072;13.526;2023-03-17T13:52:48;4.38;;;2.33;;
33864;SDS011;20159;51.072;13.526;2023-03-17T14:00:30;3.75;;;2.63;;
33864;SDS011;20159;51.072;13.526;2023-03-17T14:03:45;4.40;;;2.40;;
33864;SDS011;20159;51.072;13.526;2023-03-17T14:06:05;3.58;;;2.20;;
33864;SDS011;20159;51.072;13.526;2023-03-17T14:08:33;5.90;;;2.95;;
33864;SDS011;20159;51.072;13.526;2023-03-17T14:11:03;3.50;;;2.40;;
33864;SDS011;20159;51.072;13.526;2023-03-17T14:13:44;3.83;;;2.60;;
33864;SDS011;20159;51.072;13.526;2023-03-17T14:16:28;4.13;;;3.00;;
33864;SDS011;20159;51.072;13.526;2023-03-17T14:18:58;4.10;;;2.92;;
33864;SDS011;20159;51.072;13.526;2023-03-17T14:21:35;6.88;;;3.83;;
33864;SDS011;20159;51.072;13.526;2023-03-17T14:24:02;8.23;;;4.30;;
33864;SDS011;20159;51.072;13.526;2023-03-17T14:26:41;5.75;;;4.25;;
33864;SDS011;20159;51.072;13.526;2023-03-17T14:29:08;6.10;;;4.10;;
33864;SDS011;20159;51.072;13.526;2023-03-17T14:31:40;6.10;;;4.07;;
33864;SDS011;20159;51.072;13.526;2023-03-17T14:34:11;6.28;;;3.63;;
33864;SDS011;20159;51.072;13.526;2023-03-17T14:36:41;5.78;;;3.55;;
33864;SDS011;20159;51.072;13.526;2023-03-17T14:39:07;6.03;;;4.00;;
33864;SDS011;20159;51.072;13.526;2023-03-17T14:41:58;6.72;;;3.75;;
33864;SDS011;20159;51.072;13.526;2023-03-17T14:44:26;7.15;;;3.58;;
33864;SDS011;20159;51.072;13.526;2023-03-17T14:46:59;4.80;;;3.28;;
33864;SDS011;20159;51.072;13.526;2023-03-17T14:49:26;8.60;;;3.28;;
33864;SDS011;20159;51.072;13.526;2023-03-17T14:51:53;4.43;;;3.25;;
33864;SDS011;20159;51.072;13.526;2023-03-17T14:54:28;3.88;;;3.00;;
33864;SDS011;20159;51.072;13.526;2023-03-17T14:57:04;6.28;;;3.45;;
33864;SDS011;20159;51.072;13.526;2023-03-17T14:59:36;5.10;;;3.05;;
33864;SDS011;20159;51.072;13.526;2023-03-17T15:04:57;5.35;;;3.88;;
33864;SDS011;20159;51.072;13.526;2023-03-17T15:07:27;5.88;;;4.18;;
33864;SDS011;20159;51.072;13.526;2023-03-17T15:10:01;6.80;;;4.47;;
33864;SDS011;20159;51.072;13.526;2023-03-17T15:12:27;5.55;;;4.00;;
33864;SDS011;20159;51.072;13.526;2023-03-17T15:14:58;6.45;;;4.43;;
33864;SDS011;20159;51.072;13.526;2023-03-17T15:17:31;6.35;;;4.15;;
33864;SDS011;20159;51.072;13.526;2023-03-17T15:20:00;4.80;;;3.83;;
33864;SDS011;20159;51.072;13.526;2023-03-17T15:22:40;7.13;;;3.70;;
33864;SDS011;20159;51.072;13.526;2023-03-17T15:27:39;6.07;;;4.10;;
33864;SDS011;20159;51.072;13.526;2023-03-17T15:30:05;5.55;;;4.07;;
33864;SDS011;20159;51.072;13.526;2023-03-17T15:32:31;6.20;;;4.85;;
33864;SDS011;20159;51.072;13.526;2023-03-17T15:34:57;5.68;;;4.60;;
33864;SDS011;20159;51.072;13.526;2023-03-17T15:37:23;5.88;;;4.80;;
33864;SDS011;20159;51.072;13.526;2023-03-17T15:39:51;7.10;;;4.28;;
33864;SDS011;20159;51.072;13.526;2023-03-17T15:42:18;6.05;;;4.47;;
33864;SDS011;20159;51.072;13.526;2023-03-17T15:44:45;5.43;;;4.65;;
33864;SDS011;20159;51.072;13.526;2023-03-17T15:47:14;8.68;;;4.63;;
33864;SDS011;20159;51.072;13.526;2023-03-17T15:49:42;7.40;;;5.28;;
33864;SDS011;20159;51.072;13.526;2023-03-17T15:52:18;7.93;;;5.45;;
33864;SDS011;20159;51.072;13.526;2023-03-17T15:54:47;6.00;;;4.75;;
33864;SDS011;20159;51.072;13.526;2023-03-17T15:57:13;7.03;;;4.90;;
33864;SDS011;20159;51.072;13.526;2023-03-17T15:59:39;7.07;;;5.40;;
33864;SDS011;20159;51.072;13.526;2023-03-17T16:02:12;6.95;;;4.93;;
33864;SDS011;20159;51.072;13.526;2023-03-17T16:04:48;6.78;;;4.63;;
33864;SDS011;20159;51.072;13.526;2023-03-17T16:07:14;6.45;;;4.90;;
33864;SDS011;20159;51.072;13.526;2023-03-17T16:09:40;8.40;;;5.38;;
33864;SDS011;20159;51.072;13.526;2023-03-17T16:12:07;8.48;;;5.10;;